Time;durP1;ratioP1;P1;durP2;ratioP2;P2;SDS_P1;SDS_P2;PMS_P1;PMS_P2;Temp;Humidity;BMP_temperature;BMP_pressure;BME280_temperature;BME280_humidity;BME280_pressure;Samples;Min_cycle;Max_cycle;Signal;HPM_P1;HPM_P2
2022/01/28 00:01:00;;;;;;;7.97;3.00;;;27.30;62.30;;;;;;4159905;28;20634;-67
2022/01/28 00:03:22;;;;;;;9.25;3.60;;;27.30;62.30;;;;;;4152037;28;20341;-67
2022/01/28 00:05:45;;;;;;;11.68;2.90;;;27.30;62.30;;;;;;4154181;28;20041;-68
2022/01/28 00:08:08;;;;;;;6.43;2.75;;;27.30;62.30;;;;;;4150878;28;20034;-66
2022/01/28 00:10:31;;;;;;;7.97;2.80;;;27.30;62.20;;;;;;4148918;28;20423;-65
2022/01/28 00:39:09;;;;;;;5.20;2.28;;;27.70;62.10;;;;;;4156640;28;20037;-68
2022/01/28 00:41:31;;;;;;;6.80;2.13;;;27.70;62.00;;;;;;4153425;28;20043;-69
2022/01/28 00:43:53;;;;;;;5.57;2.30;;;27.80;61.50;;;;;;4153399;28;20539;-68
2022/01/28 00:46:16;;;;;;;5.30;2.38;;;27.80;61.30;;;;;;4150065;28;20048;-67
2022/01/28 00:48:39;;;;;;;5.32;2.33;;;27.80;61.40;;;;;;4152749;28;20026;-67
2022/01/28 00:51:01;;;;;;;5.68;2.30;;;27.80;61.50;;;;;;4148051;28;20084;-67
2022/01/28 00:53:24;;;;;;;5.72;2.50;;;27.80;61.50;;;;;;4150859;28;20538;-68
2022/01/28 00:55:46;;;;;;;4.30;2.00;;;27.80;61.50;;;;;;4155955;28;20553;-68
2022/01/28 00:58:09;;;;;;;5.32;1.88;;;27.90;61.50;;;;;;4156987;28;20037;-69
2022/01/28 01:00:32;;;;;;;7.60;2.20;;;27.90;61.40;;;;;;4150927;28;20129;-68
2022/01/28 01:02:54;;;;;;;6.00;1.85;;;27.90;61.50;;;;;;4158628;28;20037;-67
2022/01/28 01:05:17;;;;;;;5.13;1.80;;;27.90;61.50;;;;;;4158688;28;20037;-69
2022/01/28 01:07:40;;;;;;;7.03;2.05;;;28.00;61.40;;;;;;4156709;28;20412;-67
2022/01/28 01:10:04;;;;;;;4.80;1.80;;;28.00;60.90;;;;;;4155870;28;20099;-69
2022/01/28 01:12:29;;;;;;;4.45;2.00;;;28.00;61.30;;;;;;4158845;28;20451;-67
2022/01/28 01:14:52;;;;;;;4.85;2.05;;;28.00;61.20;;;;;;4158617;28;20121;-68
2022/01/28 01:19:42;;;;;;;4.65;1.80;;;28.10;61.10;;;;;;4152707;28;20037;-69
2022/01/28 01:22:07;;;;;;;6.35;1.90;;;28.10;60.90;;;;;;4157419;28;20219;-69
2022/01/28 01:24:35;;;;;;;4.97;1.95;;;28.20;60.70;;;;;;4150918;28;20938;-67
2022/01/28 01:27:00;;;;;;;6.22;1.95;;;28.20;60.50;;;;;;4157730;28;20077;-68
2022/01/28 01:29:23;;;;;;;5.03;1.90;;;28.20;60.30;;;;;;4157613;28;20037;-68
2022/01/28 01:31:46;;;;;;;4.20;1.80;;;28.20;60.30;;;;;;4158020;28;20041;-67
2022/01/28 01:34:14;;;;;;;5.53;1.60;;;28.30;60.20;;;;;;4157762;28;20102;-67
2022/01/28 01:36:36;;;;;;;4.30;1.85;;;28.30;60.00;;;;;;4158854;28;20033;-69
2022/01/28 01:38:59;;;;;;;6.00;2.25;;;28.30;60.20;;;;;;4159959;28;20055;-68
2022/01/28 01:41:42;;;;;;;4.70;2.17;;;28.30;59.20;;;;;;4159115;28;20047;-67
2022/01/28 01:44:35;;;;;;;5.25;2.17;;;28.40;59.40;;;;;;4159439;28;20041;-67
2022/01/28 01:52:14;;;;;;;3.00;1.63;;;28.50;58.60;;;;;;4160301;28;20494;-67
2022/01/28 01:54:41;;;;;;;3.65;1.80;;;28.50;58.30;;;;;;4159882;28;20135;-69
2022/01/28 01:57:04;;;;;;;4.13;2.10;;;28.50;58.40;;;;;;4159309;28;20041;-74
2022/01/28 01:59:27;;;;;;;4.57;2.22;;;28.50;58.40;;;;;;4160515;28;20054;-76
2022/01/28 02:01:49;;;;;;;5.40;2.23;;;28.60;58.40;;;;;;4156328;28;20053;-75
2022/01/28 02:04:15;;;;;;;4.82;1.92;;;28.60;58.30;;;;;;4160401;28;20052;-77
2022/01/28 02:06:40;;;;;;;4.47;2.20;;;28.60;58.10;;;;;;4162367;28;20044;-76
2022/01/28 02:09:02;;;;;;;5.38;2.30;;;28.60;58.20;;;;;;4156081;28;20422;-76
2022/01/28 02:11:25;;;;;;;8.75;2.70;;;28.70;58.20;;;;;;4159987;28;20492;-76
2022/01/28 02:13:50;;;;;;;3.75;2.17;;;28.70;58.20;;;;;;4160346;28;20037;-67
2022/01/28 02:16:12;;;;;;;5.93;2.35;;;28.70;58.30;;;;;;4159319;28;20133;-67
2022/01/28 02:18:35;;;;;;;5.10;2.58;;;28.70;58.10;;;;;;4160098;28;20041;-67
2022/01/28 02:21:05;;;;;;;2.85;1.88;;;28.70;57.90;;;;;;4158127;28;20426;-68
2022/01/28 02:23:27;;;;;;;6.55;2.22;;;28.80;57.60;;;;;;4159690;28;20083;-67
2022/01/28 02:25:50;;;;;;;5.95;2.10;;;28.80;57.50;;;;;;4159487;28;20458;-67
2022/01/28 02:28:17;;;;;;;3.55;1.83;;;28.80;57.30;;;;;;4160269;28;20510;-67
2022/01/28 02:30:40;;;;;;;5.22;2.03;;;28.90;57.10;;;;;;4156095;28;20111;-68
2022/01/28 02:33:12;;;;;;;4.15;2.20;;;28.90;57.00;;;;;;4158045;28;20069;-68
2022/01/28 02:35:34;;;;;;;5.90;1.75;;;28.90;56.80;;;;;;4160187;28;20511;-66
2022/01/28 02:37:57;;;;;;;5.35;2.13;;;28.90;56.70;;;;;;4156071;28;20045;-67
2022/01/28 02:40:19;;;;;;;4.97;1.90;;;29.00;56.70;;;;;;4159297;28;20036;-68
2022/01/28 02:42:58;;;;;;;4.93;1.85;;;29.10;56.60;;;;;;4160617;28;20139;-68
2022/01/28 02:45:31;;;;;;;4.78;1.83;;;29.10;56.50;;;;;;4155736;28;20044;-68
2022/01/28 02:47:59;;;;;;;4.72;2.00;;;29.10;56.50;;;;;;4158394;28;20107;-67
2022/01/28 02:50:23;;;;;;;4.28;1.90;;;29.10;56.50;;;;;;4157520;28;20053;-69
2022/01/28 02:53:01;;;;;;;3.60;1.80;;;29.10;56.50;;;;;;4160197;28;20128;-67
2022/01/28 02:55:23;;;;;;;4.18;1.70;;;29.10;56.60;;;;;;4160782;28;20064;-66
2022/01/28 02:57:53;;;;;;;5.55;2.08;;;29.20;56.70;;;;;;4160574;28;20045;-68
2022/01/28 03:00:15;;;;;;;4.50;2.05;;;29.20;56.70;;;;;;4160547;28;20049;-68
2022/01/28 03:02:38;;;;;;;4.25;1.50;;;29.20;56.60;;;;;;4160073;28;20049;-68
2022/01/28 03:07:26;;;;;;;5.60;2.05;;;29.30;56.80;;;;;;4158042;28;20059;-67
2022/01/28 03:10:24;;;;;;;5.72;2.00;;;29.30;56.60;;;;;;4163625;28;20097;-68
2022/01/28 03:12:36;;;;;;;5.40;2.00;;;29.30;56.50;;;;;;4161169;28;20045;-67
2022/01/28 03:15:03;;;;;;;4.13;1.70;;;29.30;56.60;;;;;;4159532;28;20724;-65
2022/01/28 03:17:50;;;;;;;4.32;1.67;;;29.40;56.40;;;;;;4159904;28;20415;-67
2022/01/28 03:22:40;;;;;;;6.22;1.90;;;29.40;56.40;;;;;;4151592;28;20050;-67
2022/01/28 03:25:02;;;;;;;4.55;1.23;;;29.40;56.20;;;;;;4156519;28;20148;-66
2022/01/28 03:27:46;;;;;;;3.97;1.70;;;29.50;56.40;;;;;;4153328;28;20107;-66
2022/01/28 03:30:07;;;;;;;4.22;1.73;;;29.50;56.40;;;;;;4148838;28;20045;-76
2022/01/28 03:32:30;;;;;;;5.68;1.83;;;29.60;56.30;;;;;;4159666;28;20051;-75
2022/01/28 03:34:52;;;;;;;2.90;1.65;;;29.60;56.40;;;;;;4155574;28;20360;-76
2022/01/28 03:37:15;;;;;;;6.95;1.55;;;29.60;56.40;;;;;;4158750;28;20038;-70
2022/01/28 03:39:38;;;;;;;3.47;1.38;;;29.60;56.50;;;;;;4156324;28;20044;-69
2022/01/28 03:42:00;;;;;;;4.80;1.55;;;29.60;56.10;;;;;;4156372;28;20679;-69
2022/01/28 03:44:22;;;;;;;5.07;1.55;;;29.70;56.80;;;;;;4153969;28;20103;-69
2022/01/28 03:46:45;;;;;;;6.60;1.70;;;29.70;56.60;;;;;;4157368;28;20064;-70
2022/01/28 03:49:09;;;;;;;5.80;2.03;;;29.70;56.80;;;;;;4154899;28;20075;-76
2022/01/28 03:51:31;;;;;;;3.53;1.52;;;29.70;56.40;;;;;;4155072;28;20037;-71
2022/01/28 03:53:56;;;;;;;6.40;1.73;;;29.80;56.60;;;;;;4151783;28;20045;-71
2022/01/28 03:56:18;;;;;;;4.70;1.70;;;29.80;56.20;;;;;;4148998;28;20084;-72
2022/01/28 03:58:44;;;;;;;6.17;1.60;;;29.90;56.20;;;;;;4149626;28;20034;-71
2022/01/28 04:01:14;;;;;;;4.63;2.03;;;29.90;56.20;;;;;;4154877;28;20066;-70
2022/01/28 04:03:39;;;;;;;5.65;1.40;;;30.00;56.20;;;;;;4153016;28;20042;-70
2022/01/28 04:13:49;;;;;;;2.63;1.35;;;30.10;56.00;;;;;;4147898;28;20044;-71
2022/01/28 04:16:31;;;;;;;3.78;1.40;;;30.10;56.00;;;;;;4149167;28;20038;-71
2022/01/28 04:18:54;;;;;;;2.80;1.33;;;29.80;55.00;;;;;;4151526;28;20041;-71
2022/01/28 04:21:16;;;;;;;4.13;1.10;;;29.50;54.70;;;;;;4152866;28;20132;-75
2022/01/28 04:23:39;;;;;;;1.70;0.98;;;29.20;54.40;;;;;;4156424;28;20373;-73
2022/01/28 04:26:01;;;;;;;3.92;0.95;;;28.90;54.00;;;;;;4159076;28;20071;-74
2022/01/28 04:28:24;;;;;;;1.58;1.00;;;28.70;55.20;;;;;;4160473;28;20100;-73
2022/01/28 04:30:47;;;;;;;1.65;1.13;;;28.60;54.00;;;;;;4158361;28;20080;-72
2022/01/28 04:33:09;;;;;;;0.90;0.90;;;28.60;53.90;;;;;;4156207;28;20041;-74
2022/01/28 04:35:32;;;;;;;1.23;0.98;;;28.50;54.20;;;;;;4149524;28;20073;-72
2022/01/28 04:38:13;;;;;;;1.10;0.80;;;28.50;53.50;;;;;;4158942;28;20179;-72
2022/01/28 04:40:49;;;;;;;1.05;0.93;;;28.50;53.10;;;;;;4157669;28;20049;-71
2022/01/28 04:43:22;;;;;;;1.45;0.90;;;28.40;53.30;;;;;;4158681;28;20038;-72
2022/01/28 04:45:58;;;;;;;1.15;0.70;;;28.40;52.90;;;;;;4159349;28;20765;-73
2022/01/28 04:56:04;;;;;;;1.60;0.90;;;28.30;52.10;;;;;;4159341;28;20781;-74
2022/01/28 05:09:12;;;;;;;1.13;0.90;;;28.30;51.90;;;;;;4155065;28;20509;-73
2022/01/28 05:27:09;;;;;;;1.15;0.95;;;28.30;51.10;;;;;;4152032;28;20042;-70
2022/01/28 05:29:32;;;;;;;0.80;0.63;;;28.30;51.30;;;;;;4151479;28;20090;-67
2022/01/28 05:31:54;;;;;;;0.85;0.80;;;28.40;50.70;;;;;;4151824;28;20048;-67
2022/01/28 05:34:17;;;;;;;0.70;0.70;;;28.30;50.70;;;;;;4151565;28;20041;-67
2022/01/28 05:36:46;;;;;;;1.05;0.90;;;28.40;50.80;;;;;;4151737;28;20033;-67
2022/01/28 05:39:09;;;;;;;0.70;0.70;;;28.40;50.40;;;;;;4153074;28;20209;-69
2022/01/28 05:41:32;;;;;;;0.77;0.60;;;28.40;50.60;;;;;;4149042;28;20045;-68
2022/01/28 05:43:54;;;;;;;1.27;0.77;;;28.50;50.90;;;;;;4169021;28;20041;-68
2022/01/28 05:46:19;;;;;;;1.30;0.80;;;28.50;50.40;;;;;;4150645;28;20049;-67
2022/01/28 05:48:42;;;;;;;0.95;0.73;;;28.60;50.60;;;;;;4153740;28;20037;-69
2022/01/28 05:51:04;;;;;;;0.63;0.63;;;28.60;50.50;;;;;;4155508;28;20039;-69
2022/01/28 05:53:27;;;;;;;0.80;0.80;;;28.70;50.30;;;;;;4151266;28;20037;-69
2022/01/28 05:55:49;;;;;;;0.70;0.68;;;28.70;50.30;;;;;;4153950;28;20041;-70
2022/01/28 05:58:12;;;;;;;0.52;0.52;;;28.70;50.20;;;;;;4149024;28;20053;-70
2022/01/28 06:00:34;;;;;;;0.75;0.75;;;28.80;49.90;;;;;;4148704;28;20041;-68
2022/01/28 06:02:57;;;;;;;0.98;0.57;;;28.80;49.70;;;;;;4156154;28;20048;-68
2022/01/28 06:05:19;;;;;;;0.57;0.57;;;28.80;49.90;;;;;;4157066;28;20131;-67
2022/01/28 06:07:42;;;;;;;1.13;0.70;;;28.90;49.30;;;;;;4149972;28;20041;-66
2022/01/28 06:10:05;;;;;;;0.65;0.65;;;28.90;49.10;;;;;;4151637;28;20053;-67
2022/01/28 06:12:27;;;;;;;0.95;0.80;;;28.70;49.30;;;;;;4164697;28;20037;-68
2022/01/28 06:14:50;;;;;;;0.82;0.70;;;28.50;50.00;;;;;;4165147;28;20457;-68
2022/01/28 06:17:12;;;;;;;1.02;0.70;;;28.20;50.10;;;;;;4160413;28;20098;-69
2022/01/28 06:19:34;;;;;;;2.00;1.25;;;28.00;50.40;;;;;;4164966;28;20093;-69
2022/01/28 06:21:57;;;;;;;1.75;1.13;;;27.80;50.60;;;;;;4162903;28;20057;-68
2022/01/28 06:24:19;;;;;;;2.13;0.90;;;27.60;50.70;;;;;;4163834;28;20037;-68
2022/01/28 06:26:42;;;;;;;1.52;1.05;;;27.40;51.00;;;;;;4163809;28;20077;-67
2022/01/28 06:29:04;;;;;;;1.20;0.88;;;27.30;51.10;;;;;;4158711;28;20145;-68
2022/01/28 06:31:26;;;;;;;1.42;0.90;;;27.20;51.30;;;;;;4161302;28;20041;-67
2022/01/28 06:33:49;;;;;;;1.08;0.80;;;27.00;51.40;;;;;;4159805;28;20685;-67
2022/01/28 06:36:12;;;;;;;1.33;0.80;;;26.90;50.90;;;;;;4158279;28;20094;-67
2022/01/28 06:38:35;;;;;;;1.03;0.70;;;26.80;51.60;;;;;;4159552;28;20282;-67
2022/01/28 06:40:58;;;;;;;1.38;0.63;;;26.70;51.90;;;;;;4159855;28;20080;-68
2022/01/28 06:43:20;;;;;;;1.63;1.15;;;26.60;51.90;;;;;;4159702;28;20029;-67
2022/01/28 06:45:43;;;;;;;1.85;1.10;;;26.50;52.10;;;;;;4160270;28;20114;-67
2022/01/28 06:48:07;;;;;;;1.45;0.85;;;26.40;52.20;;;;;;4155592;28;20069;-68
2022/01/28 06:50:30;;;;;;;1.92;1.08;;;26.30;52.40;;;;;;4157686;28;20041;-68
2022/01/28 06:52:52;;;;;;;1.95;1.20;;;26.20;52.50;;;;;;4159451;28;20037;-67
2022/01/28 06:55:16;;;;;;;2.42;1.23;;;26.10;52.40;;;;;;4159147;28;20042;-67
2022/01/28 06:57:39;;;;;;;1.67;1.02;;;26.00;52.60;;;;;;4155495;28;20037;-68
2022/01/28 07:00:03;;;;;;;0.95;0.70;;;26.00;52.90;;;;;;4157585;28;20113;-68
2022/01/28 07:02:26;;;;;;;1.17;0.90;;;25.90;53.00;;;;;;4156688;28;20188;-67
2022/01/28 07:04:49;;;;;;;2.42;1.27;;;25.80;53.30;;;;;;4156069;28;20041;-67
2022/01/28 07:07:11;;;;;;;1.00;0.80;;;25.70;53.30;;;;;;4158346;28;20076;-67
2022/01/28 07:09:37;;;;;;;1.40;0.93;;;25.70;53.30;;;;;;4159587;28;20057;-65
2022/01/28 07:12:00;;;;;;;1.92;0.90;;;25.60;53.90;;;;;;4179355;28;20045;-67
2022/01/28 07:14:23;;;;;;;1.85;1.00;;;25.70;54.50;;;;;;4165950;28;20040;-66
2022/01/28 07:16:54;;;;;;;1.83;0.80;;;25.90;54.80;;;;;;4161043;28;20063;-67
2022/01/28 07:19:16;;;;;;;1.83;1.00;;;26.10;54.90;;;;;;4160730;28;20068;-67
2022/01/28 07:21:39;;;;;;;4.10;0.88;;;26.30;55.00;;;;;;4155138;28;20084;-68
2022/01/28 07:24:07;;;;;;;4.05;1.00;;;26.40;55.20;;;;;;4161249;28;20049;-68
2022/01/28 07:26:39;;;;;;;1.40;0.93;;;26.60;55.50;;;;;;4157382;28;20088;-69
2022/01/28 07:29:01;;;;;;;1.95;0.90;;;26.80;55.40;;;;;;4146946;28;20919;-70
2022/01/28 07:31:24;;;;;;;3.30;0.80;;;27.00;55.40;;;;;;4151849;28;20042;-70
2022/01/28 07:33:49;;;;;;;3.50;1.40;;;27.20;55.30;;;;;;4155143;28;20118;-70
2022/01/28 07:36:12;;;;;;;1.85;0.98;;;27.30;55.30;;;;;;4155063;28;20106;-69
2022/01/28 07:38:34;;;;;;;2.05;1.00;;;27.40;55.40;;;;;;4153472;28;20089;-69
2022/01/28 07:41:01;;;;;;;1.58;0.80;;;27.50;55.30;;;;;;4150824;28;20115;-69
2022/01/28 07:43:23;;;;;;;3.45;1.10;;;27.60;55.30;;;;;;4156191;28;20564;-69
2022/01/28 07:45:46;;;;;;;2.65;1.10;;;27.80;55.60;;;;;;4156756;28;20124;-71
2022/01/28 07:48:08;;;;;;;3.47;1.17;;;27.90;55.50;;;;;;4155068;28;20041;-70
2022/01/28 07:50:33;;;;;;;1.52;0.80;;;28.00;55.60;;;;;;4155283;28;20045;-71
2022/01/28 07:52:56;;;;;;;2.03;0.90;;;28.10;59.90;;;;;;4159362;28;20407;-70
2022/01/28 07:55:18;;;;;;;1.23;0.70;;;28.00;60.70;;;;;;4158379;28;20519;-70
2022/01/28 07:57:43;;;;;;;2.90;1.00;;;27.90;57.50;;;;;;4149799;28;20037;-70
2022/01/28 08:00:07;;;;;;;1.08;0.68;;;27.70;55.90;;;;;;4158043;28;20037;-73
2022/01/28 08:02:29;;;;;;;1.38;0.85;;;27.50;55.00;;;;;;4141961;28;20141;-69
2022/01/28 08:04:51;;;;;;;8.50;1.00;;;27.30;54.50;;;;;;4155740;28;20045;-70
2022/01/28 08:07:14;;;;;;;1.75;1.05;;;27.20;54.20;;;;;;4157836;28;20047;-72
2022/01/28 08:09:36;;;;;;;2.90;1.00;;;27.00;53.90;;;;;;4146915;28;20053;-69
2022/01/28 08:11:59;;;;;;;1.00;0.75;;;26.90;53.80;;;;;;4153551;28;20067;-70
2022/01/28 08:14:21;;;;;;;1.55;0.70;;;26.70;53.70;;;;;;4155216;28;20030;-72
2022/01/28 08:16:46;;;;;;;1.75;0.93;;;26.60;53.60;;;;;;4153837;28;20690;-71
2022/01/28 08:19:09;;;;;;;1.05;0.90;;;26.40;53.60;;;;;;4152264;28;20159;-71
2022/01/28 08:21:32;;;;;;;2.38;0.90;;;26.30;54.10;;;;;;4156827;28;20471;-70
2022/01/28 08:23:54;;;;;;;3.47;0.85;;;26.20;53.90;;;;;;4143950;28;20033;-69
2022/01/28 08:26:18;;;;;;;1.48;0.75;;;26.10;53.70;;;;;;4154680;28;20049;-71
2022/01/28 08:28:41;;;;;;;1.52;0.80;;;26.00;53.80;;;;;;4156477;28;20395;-71
2022/01/28 08:31:04;;;;;;;1.13;0.70;;;25.90;53.90;;;;;;4155609;28;20390;-70
2022/01/28 08:33:26;;;;;;;3.35;1.00;;;25.90;54.10;;;;;;4146758;28;20073;-71
2022/01/28 08:35:53;;;;;;;1.23;0.80;;;25.80;54.10;;;;;;4155988;28;20049;-71
2022/01/28 08:38:24;;;;;;;2.15;0.80;;;25.70;54.70;;;;;;4146527;28;20359;-70
2022/01/28 08:40:53;;;;;;;5.18;1.00;;;25.80;55.60;;;;;;4155898;28;20104;-71
2022/01/28 08:43:15;;;;;;;1.58;1.00;;;25.90;56.10;;;;;;4155047;28;20384;-73
2022/01/28 08:45:38;;;;;;;2.80;1.05;;;26.00;56.10;;;;;;4144675;28;20038;-73
2022/01/28 08:48:00;;;;;;;1.98;1.00;;;26.00;55.40;;;;;;4154912;28;20049;-71
2022/01/28 08:50:23;;;;;;;2.03;1.05;;;25.90;54.90;;;;;;4157683;28;20044;-72
2022/01/28 08:52:46;;;;;;;1.48;1.00;;;25.80;54.70;;;;;;4145994;28;20191;-68
2022/01/28 08:55:09;;;;;;;1.48;0.98;;;25.70;54.50;;;;;;4156323;28;20034;-71
2022/01/28 08:57:31;;;;;;;1.30;0.93;;;25.50;54.10;;;;;;4155791;28;20049;-72
2022/01/28 08:59:54;;;;;;;1.60;0.77;;;25.40;54.50;;;;;;4167370;28;20060;-73
2022/01/28 09:02:16;;;;;;;1.40;0.93;;;25.40;55.20;;;;;;4155671;28;20609;-67
2022/01/28 09:04:39;;;;;;;3.85;1.40;;;25.40;55.80;;;;;;4155930;28;20034;-70
2022/01/28 09:07:05;;;;;;;2.55;0.90;;;25.60;56.30;;;;;;4146081;28;20107;-69
2022/01/28 09:09:28;;;;;;;1.75;0.90;;;25.60;56.20;;;;;;4144127;28;20056;-68
2022/01/28 09:12:26;;;;;;;1.55;0.98;;;25.50;55.00;;;;;;4140595;28;20148;-69
2022/01/28 09:14:36;;;;;;;1.83;1.00;;;25.30;54.30;;;;;;4149822;28;20037;-70
2022/01/28 09:16:58;;;;;;;4.05;1.40;;;25.20;54.20;;;;;;4146509;28;20041;-70
2022/01/28 09:19:21;;;;;;;1.50;1.10;;;25.10;54.80;;;;;;4155607;28;20124;-69
2022/01/28 09:21:43;;;;;;;2.72;1.10;;;25.00;55.40;;;;;;4155051;28;20096;-71
2022/01/28 09:24:07;;;;;;;1.98;1.20;;;25.10;56.00;;;;;;4138011;28;20640;-68
2022/01/28 09:26:29;;;;;;;2.40;1.30;;;25.20;56.70;;;;;;4149563;28;20045;-68
2022/01/28 09:28:52;;;;;;;1.70;0.85;;;25.40;57.60;;;;;;4151664;28;20048;-68
2022/01/28 09:31:14;;;;;;;3.30;1.45;;;25.30;55.60;;;;;;4149377;28;20120;-69
2022/01/28 09:33:37;;;;;;;2.15;1.33;;;25.10;55.00;;;;;;4152105;28;20030;-69
2022/01/28 09:36:00;;;;;;;1.67;0.98;;;24.90;54.70;;;;;;4149177;28;20049;-68
2022/01/28 09:38:22;;;;;;;2.20;1.05;;;24.80;54.80;;;;;;4157455;28;20103;-70
2022/01/28 09:40:44;;;;;;;1.40;0.98;;;24.70;55.80;;;;;;4155051;28;20145;-69
2022/01/28 09:43:08;;;;;;;1.63;0.85;;;24.70;55.80;;;;;;4156750;28;20033;-68
2022/01/28 09:45:31;;;;;;;1.63;0.95;;;24.80;55.90;;;;;;4151913;28;20106;-71
2022/01/28 09:47:56;;;;;;;2.10;1.00;;;25.00;56.70;;;;;;4149635;28;20049;-68
2022/01/28 09:50:21;;;;;;;1.38;0.90;;;25.00;56.40;;;;;;4154169;28;20053;-68
2022/01/28 09:52:43;;;;;;;2.00;1.02;;;24.90;55.80;;;;;;4153589;28;20048;-67
2022/01/28 09:55:07;;;;;;;3.00;1.40;;;24.80;55.50;;;;;;4151883;28;20088;-68
2022/01/28 09:57:29;;;;;;;;;;;24.60;55.60;;;;;;4151585;28;20042;-67
2022/01/28 09:59:52;;;;;;;2.45;1.25;;;24.50;56.30;;;;;;4150921;28;19914;-69
2022/01/28 10:02:15;;;;;;;2.45;1.10;;;24.60;56.50;;;;;;4150077;28;20045;-69
2022/01/28 10:04:37;;;;;;;2.00;1.17;;;24.60;57.00;;;;;;4152103;28;20036;-66
2022/01/28 10:07:10;;;;;;;2.08;1.00;;;24.80;58.40;;;;;;4164142;28;20442;-67
2022/01/28 10:09:33;;;;;;;2.15;1.00;;;24.80;57.80;;;;;;4151182;28;20052;-66
2022/01/28 10:12:26;;;;;;;1.80;0.98;;;24.70;56.90;;;;;;4144360;28;20041;-66
2022/01/28 10:15:05;;;;;;;2.47;1.08;;;24.50;56.40;;;;;;4152981;28;20038;-73
2022/01/28 10:17:54;;;;;;;3.00;1.30;;;24.40;56.90;;;;;;4150588;28;20044;-74
2022/01/28 10:20:17;;;;;;;3.10;1.33;;;24.50;57.40;;;;;;4157476;28;20033;-77
2022/01/28 10:22:53;;;;;;;2.25;1.42;;;24.60;58.30;;;;;;4161165;28;20211;-74
2022/01/28 10:25:35;;;;;;;3.03;1.25;;;24.80;61.70;;;;;;4159219;28;20041;-76
2022/01/28 10:28:02;;;;;;;1.92;1.08;;;24.80;59.20;;;;;;4159771;28;20033;-75
2022/01/28 10:30:25;;;;;;;1.95;1.08;;;24.70;57.90;;;;;;4156769;28;20055;-74
2022/01/28 10:33:07;;;;;;;2.40;1.17;;;24.60;57.50;;;;;;4154679;28;20116;-74
2022/01/28 10:35:33;;;;;;;2.05;1.10;;;24.50;57.40;;;;;;4155346;28;20033;-75
2022/01/28 10:37:59;;;;;;;2.22;1.05;;;24.50;58.40;;;;;;4154583;28;20041;-75
2022/01/28 10:40:21;;;;;;;3.28;1.23;;;24.60;58.80;;;;;;4155893;28;20034;-73
2022/01/28 10:42:52;;;;;;;3.15;1.20;;;24.80;59.00;;;;;;4171976;28;20770;-76
2022/01/28 10:45:19;;;;;;;2.72;1.20;;;24.80;60.10;;;;;;4158102;28;20114;-76
2022/01/28 10:47:49;;;;;;;3.22;1.10;;;24.80;58.60;;;;;;4159920;28;20045;-76
2022/01/28 10:50:31;;;;;;;2.08;1.40;;;24.60;57.50;;;;;;4162303;28;20064;-75
2022/01/28 10:53:15;;;;;;;2.33;1.10;;;24.50;57.80;;;;;;4163146;28;20511;-77
2022/01/28 10:55:57;;;;;;;2.70;1.00;;;24.50;59.10;;;;;;4162181;28;20059;-77
2022/01/28 10:58:22;;;;;;;3.78;1.30;;;24.70;59.60;;;;;;4163323;28;20021;-75
2022/01/28 11:00:47;;;;;;;2.53;1.27;;;24.80;60.10;;;;;;4163972;28;20124;-78
2022/01/28 11:03:12;;;;;;;1.63;1.00;;;25.00;60.40;;;;;;4165631;28;20142;-74
2022/01/28 11:05:36;;;;;;;2.33;0.98;;;24.90;58.10;;;;;;4170220;28;20124;-75
2022/01/28 11:07:58;;;;;;;;;;;24.70;56.80;;;;;;4166527;28;20061;-72
2022/01/28 11:10:22;;;;;;;2.22;1.02;;;24.60;56.40;;;;;;4162359;28;19917;-75
2022/01/28 11:12:45;;;;;;;1.73;0.87;;;24.50;57.60;;;;;;4164059;28;20197;-76
2022/01/28 11:15:08;;;;;;;1.90;0.90;;;24.60;58.40;;;;;;4166904;28;20495;-74
2022/01/28 11:17:31;;;;;;;2.42;1.20;;;24.70;58.90;;;;;;4162199;28;20124;-75
2022/01/28 11:19:55;;;;;;;2.50;0.90;;;24.80;59.10;;;;;;4157796;28;20037;-75
2022/01/28 11:22:39;;;;;;;2.20;0.85;;;25.00;59.10;;;;;;4157663;28;20128;-72
2022/01/28 11:25:14;;;;;;;2.58;1.10;;;24.80;57.00;;;;;;4158391;28;20463;-77
2022/01/28 11:27:41;;;;;;;2.40;1.20;;;24.60;56.20;;;;;;4160242;28;20076;-75
2022/01/28 11:30:24;;;;;;;3.10;1.15;;;24.50;56.90;;;;;;4153987;28;20661;-76
2022/01/28 11:33:08;;;;;;;5.27;1.13;;;24.50;58.10;;;;;;4160422;28;20041;-76
2022/01/28 11:35:38;;;;;;;2.70;0.73;;;24.70;58.70;;;;;;4155041;28;20034;-77
2022/01/28 11:38:04;;;;;;;2.90;1.08;;;24.80;59.00;;;;;;4156458;28;20434;-76
2022/01/28 11:40:27;;;;;;;3.00;1.13;;;24.90;59.70;;;;;;4170905;28;20098;-74
2022/01/28 11:42:49;;;;;;;2.70;1.38;;;24.80;57.10;;;;;;4153789;28;20556;-72
2022/01/28 11:45:12;;;;;;;2.20;0.90;;;24.60;56.30;;;;;;4156700;28;20049;-72
2022/01/28 11:47:41;;;;;;;6.20;1.50;;;24.40;56.80;;;;;;4154878;28;20033;-72
2022/01/28 11:50:15;;;;;;;3.67;1.15;;;24.40;58.00;;;;;;4156064;28;20087;-73
2022/01/28 11:52:42;;;;;;;2.60;1.10;;;24.60;58.70;;;;;;4158836;28;20042;-73
2022/01/28 11:55:25;;;;;;;2.25;0.93;;;24.70;59.10;;;;;;4156795;28;20120;-74
2022/01/28 11:58:05;;;;;;;5.95;1.17;;;24.80;60.90;;;;;;4155139;28;20041;-75
2022/01/28 12:00:44;;;;;;;1.73;0.70;;;24.80;57.80;;;;;;4152647;28;20042;-74
2022/01/28 12:03:28;;;;;;;5.75;1.27;;;24.60;56.50;;;;;;4151536;28;20053;-73
2022/01/28 12:05:50;;;;;;;;;;;24.40;56.60;;;;;;4159582;28;20124;-73
2022/01/28 12:08:15;;;;;;;4.28;1.55;;;24.40;57.80;;;;;;4157553;28;19913;-72
2022/01/28 12:10:43;;;;;;;3.80;1.38;;;24.50;58.70;;;;;;4151927;28;20479;-73
2022/01/28 12:13:11;;;;;;;6.53;1.40;;;24.60;58.90;;;;;;4158017;28;20575;-74
2022/01/28 12:16:00;;;;;;;3.58;0.80;;;24.70;59.90;;;;;;4154101;28;20030;-73
2022/01/28 12:18:23;;;;;;;2.13;1.02;;;24.70;58.00;;;;;;4153467;28;20487;-74
2022/01/28 12:20:48;;;;;;;2.30;1.05;;;24.60;56.60;;;;;;4152341;28;20389;-74
2022/01/28 12:23:10;;;;;;;11.73;1.90;;;24.40;57.90;;;;;;4164716;28;20053;-73
2022/01/28 12:25:42;;;;;;;10.70;2.08;;;24.50;58.90;;;;;;4152452;28;20037;-72
2022/01/28 12:28:31;;;;;;;9.32;1.85;;;24.60;59.80;;;;;;4153896;28;20076;-74
2022/01/28 12:30:59;;;;;;;10.82;2.00;;;24.70;60.00;;;;;;4151391;28;20041;-76
2022/01/28 12:33:36;;;;;;;12.93;2.47;;;24.80;60.30;;;;;;4150653;28;20037;-77
2022/01/28 12:36:05;;;;;;;15.77;1.98;;;24.90;60.50;;;;;;4157311;28;20071;-74
2022/01/28 12:38:31;;;;;;;15.02;2.40;;;25.10;60.90;;;;;;4148863;28;20099;-75
2022/01/28 12:40:56;;;;;;;18.02;2.10;;;25.10;61.10;;;;;;4153897;28;20058;-71
2022/01/28 12:43:24;;;;;;;19.02;2.53;;;25.20;61.00;;;;;;4154267;28;20049;-74
2022/01/28 12:46:03;;;;;;;12.25;2.30;;;25.30;61.10;;;;;;4157981;28;20096;-73
2022/01/28 12:48:26;;;;;;;19.08;2.47;;;25.40;61.30;;;;;;4156993;28;20030;-72
2022/01/28 12:50:53;;;;;;;9.63;2.13;;;25.50;61.60;;;;;;4155386;28;20034;-74
2022/01/28 12:53:54;;;;;;;23.05;2.65;;;25.60;61.60;;;;;;4155256;28;20103;-72
2022/01/28 12:56:28;;;;;;;38.05;4.03;;;25.60;61.70;;;;;;4156931;28;20030;-74
2022/01/28 12:58:52;;;;;;;24.42;3.10;;;25.70;61.70;;;;;;4150266;28;20732;-71
2022/01/28 13:01:18;;;;;;;22.70;3.33;;;25.80;61.60;;;;;;4156510;28;20112;-72
2022/01/28 13:04:01;;;;;;;29.42;4.30;;;25.80;61.70;;;;;;4156578;28;20037;-73
2022/01/28 13:08:57;;;;;;;21.00;3.35;;;26.00;62.00;;;;;;4158251;28;20521;-72
2022/01/28 13:11:19;;;;;;;27.60;4.38;;;26.00;61.90;;;;;;4155996;28;20046;-73
2022/01/28 13:13:52;;;;;;;30.75;4.93;;;26.10;62.10;;;;;;4153701;28;20604;-72
2022/01/28 13:16:15;;;;;;;31.77;4.93;;;26.10;62.00;;;;;;4153500;28;20060;-73
2022/01/28 13:18:53;;;;;;;33.17;4.90;;;26.20;62.10;;;;;;4148949;28;20123;-73
2022/01/28 13:21:16;;;;;;;29.55;3.80;;;26.20;62.00;;;;;;4152692;28;20044;-74
2022/01/28 13:23:38;;;;;;;20.52;3.50;;;26.30;62.00;;;;;;4154743;28;20123;-73
2022/01/28 13:26:05;;;;;;;14.75;3.45;;;26.30;62.00;;;;;;4156900;28;20045;-73
2022/01/28 13:28:28;;;;;;;14.57;2.83;;;26.30;62.00;;;;;;4159138;28;20037;-72
2022/01/28 13:30:57;;;;;;;18.30;3.30;;;26.40;61.90;;;;;;4156999;28;20137;-72
2022/01/28 13:33:29;;;;;;;17.52;3.08;;;26.40;61.90;;;;;;4156598;28;20041;-72
2022/01/28 13:35:58;;;;;;;12.48;2.55;;;26.50;61.90;;;;;;4156299;28;20491;-70
2022/01/28 13:38:20;;;;;;;21.75;3.30;;;26.50;61.90;;;;;;4155326;28;20141;-72
2022/01/28 13:40:43;;;;;;;10.20;2.45;;;26.50;61.90;;;;;;4155185;28;20535;-71
2022/01/28 13:43:11;;;;;;;9.30;2.25;;;26.50;61.90;;;;;;4153328;28;20370;-72
2022/01/28 13:45:40;;;;;;;10.95;2.70;;;26.50;62.00;;;;;;4155857;28;20483;-71
2022/01/28 13:48:06;;;;;;;20.15;3.63;;;26.60;62.10;;;;;;4150576;28;20112;-70
2022/01/28 13:50:42;;;;;;;8.60;2.22;;;26.60;62.10;;;;;;4156382;28;20689;-71
2022/01/28 13:56:03;;;;;;;8.85;1.90;;;26.70;62.00;;;;;;4151522;28;20038;-72
2022/01/28 13:58:26;;;;;;;12.63;1.90;;;26.80;62.10;;;;;;4157262;28;20041;-73
2022/01/28 14:00:51;;;;;;;18.88;2.20;;;26.70;61.90;;;;;;4151176;28;20092;-71
2022/01/28 14:03:22;;;;;;;7.63;1.58;;;26.80;62.10;;;;;;4151207;28;20042;-72
2022/01/28 14:06:01;;;;;;;6.75;1.48;;;26.80;62.10;;;;;;4153609;28;20049;-72